Time;durP1;ratioP1;P1;durP2;ratioP2;P2;SDS_P1;SDS_P2;PMS_P1;PMS_P2;Temp;Humidity;BMP_temperature;BMP_pressure;BME280_temperature;BME280_humidity;BME280_pressure;Samples;Min_cycle;Max_cycle;Signal;HPM_P1;HPM_P2
2021/11/27 00:00:57;;;;;;;;;;;;;;;;;;5055005;28;19954;-76
2021/11/27 00:03:23;;;;;;;;;;;;;;;;;;5056216;28;19916;-76
2021/11/27 00:05:50;;;;;;;;;;;;;;;;;;5054713;28;19916;-76
2021/11/27 00:08:16;;;;;;;;;;;;;;;;;;5055406;28;19919;-77
2021/11/27 00:10:43;;;;;;;;;;;;;;;;;;5055995;28;20370;-76
2021/11/27 00:13:09;;;;;;;;;;;;;;;;;;5055918;28;19919;-76
2021/11/27 00:15:35;;;;;;;;;;;;;;;;;;5055913;28;19912;-76
2021/11/27 00:18:00;;;;;;;;;;;;;;;;;;5055888;28;19919;-76
2021/11/27 00:20:28;;;;;;;;;;;;;;;;;;5055958;28;20297;-76
2021/11/27 00:22:54;;;;;;;;;;;;;;;;;;5055744;28;19916;-76
2021/11/27 00:25:19;;;;;;;;;;;;;;;;;;5055630;28;19925;-76
2021/11/27 00:27:45;;;;;;;;;;;;;;;;;;5055696;28;20058;-76
2021/11/27 00:30:12;;;;;;;;;;;;;;;;;;5054468;28;19948;-76
2021/11/27 00:32:37;;;;;;;;;;;;;;;;;;5055653;28;20386;-76
2021/11/27 00:35:03;;;;;;;;;;;;;;;;;;5055724;28;19919;-75
2021/11/27 00:37:29;;;;;;;;;;;;;;;;;;5055549;28;19913;-75
2021/11/27 00:39:54;;;;;;;;;;;;;;;;;;5054734;28;20384;-75
2021/11/27 00:42:19;;;;;;;;;;;;;;;;;;5055415;28;20398;-75
2021/11/27 00:44:45;;;;;;;;;;;;;;;;;;5053776;28;19919;-76
2021/11/27 00:47:10;;;;;;;;;;;;;;;;;;5055209;28;19923;-76
2021/11/27 00:49:35;;;;;;;;;;;;;;;;;;5054199;28;19951;-76
2021/11/27 00:52:01;;;;;;;;;;;;;;;;;;5055120;28;19920;-76
2021/11/27 00:54:27;;;;;;;;;;;;;;;;;;5053749;28;19916;-77
2021/11/27 00:56:52;;;;;;;;;;;;;;;;;;5054997;28;19923;-77
2021/11/27 00:59:18;;;;;;;;;;;;;;;;;;5037457;28;19970;-76
2021/11/27 01:01:44;;;;;;;;;;;;;;;;;;5053850;28;19931;-76
2021/11/27 01:04:10;;;;;;;;;;;;;;;;;;5052893;28;19921;-76
2021/11/27 01:06:36;;;;;;;;;;;;;;;;;;5054575;28;19920;-76
2021/11/27 01:09:05;;;;;;;;;;;;;;;;;;5054150;28;19917;-76
2021/11/27 01:11:32;;;;;;;;;;;;;;;;;;5053580;28;19959;-76
2021/11/27 01:14:00;;;;;;;;;;;;;;;;;;5053250;28;19912;-76
2021/11/27 01:16:27;;;;;;;;;;;;;;;;;;5053632;28;19920;-76
2021/11/27 01:18:53;;;;;;;;;;;;;;;;;;5054575;28;19948;-76
2021/11/27 01:21:20;;;;;;;;;;;;;;;;;;5054780;28;19962;-76
2021/11/27 01:23:46;;;;;;;;;;;;;;;;;;5054543;28;19919;-76
2021/11/27 01:26:12;;;;;;;;;;;;;;;;;;5053066;28;20286;-76
2021/11/27 01:28:38;;;;;;;;;;;;;;;;;;5053293;28;19966;-76
2021/11/27 01:31:03;;;;;;;;;;;;;;;;;;5054681;28;20409;-76
2021/11/27 01:33:30;;;;;;;;;;;;;;;;;;5053336;28;20290;-76
2021/11/27 01:35:56;;;;;;;;;;;;;;;;;;5053164;28;19909;-76
2021/11/27 01:38:21;;;;;;;;;;;;;;;;;;5052866;28;19920;-76
2021/11/27 01:40:48;;;;;;;;;;;;;;;;;;5052758;28;19916;-76
2021/11/27 01:43:13;;;;;;;;;;;;;;;;;;5053111;28;20289;-76
2021/11/27 01:45:39;;;;;;;;;;;;;;;;;;5052594;28;19956;-76
2021/11/27 01:48:06;;;;;;;;;;;;;;;;;;5053034;28;19912;-76
2021/11/27 01:50:33;;;;;;;;;;;;;;;;;;5052831;28;19913;-76
2021/11/27 01:52:59;;;;;;;;;;;;;;;;;;5054016;28;19966;-76
2021/11/27 01:55:27;;;;;;;;;;;;;;;;;;5052566;28;19916;-76
2021/11/27 01:57:52;;;;;;;;;;;;;;;;;;5052470;28;19919;-76
2021/11/27 02:00:21;;;;;;;;;;;;;;;;;;5052570;28;19912;-76
2021/11/27 02:02:47;;;;;;;;;;;;;;;;;;5054124;28;19913;-76
2021/11/27 02:05:13;;;;;;;;;;;;;;;;;;5051677;28;20395;-76
2021/11/27 02:07:40;;;;;;;;;;;;;;;;;;5052539;28;19917;-76
2021/11/27 02:10:08;;;;;;;;;;;;;;;;;;5051760;28;20270;-76
2021/11/27 02:12:33;;;;;;;;;;;;;;;;;;5052601;28;19927;-76
2021/11/27 02:14:59;;;;;;;;;;;;;;;;;;5052511;28;19942;-76
2021/11/27 02:17:24;;;;;;;;;;;;;;;;;;5052501;28;19920;-76
2021/11/27 02:19:52;;;;;;;;;;;;;;;;;;5052403;28;19916;-76
2021/11/27 02:22:18;;;;;;;;;;;;;;;;;;5051628;28;19919;-76
2021/11/27 02:24:46;;;;;;;;;;;;;;;;;;5052381;28;19912;-76
2021/11/27 02:27:13;;;;;;;;;;;;;;;;;;5036058;28;20350;-76
2021/11/27 02:29:39;;;;;;;;;;;;;;;;;;5053701;28;19919;-76
2021/11/27 02:32:05;;;;;;;;;;;;;;;;;;5053548;28;19913;-76
2021/11/27 02:34:31;;;;;;;;;;;;;;;;;;5052265;28;20362;-76
2021/11/27 02:37:02;;;;;;;;;;;;;;;;;;5052260;28;19943;-76
2021/11/27 02:39:29;;;;;;;;;;;;;;;;;;5053723;28;19920;-76
2021/11/27 02:41:55;;;;;;;;;;;;;;;;;;5052200;28;19913;-76
2021/11/27 02:44:24;;;;;;;;;;;;;;;;;;5052221;28;20358;-76
2021/11/27 02:46:50;;;;;;;;;;;;;;;;;;5051931;28;19974;-76
2021/11/27 02:49:16;;;;;;;;;;;;;;;;;;5051489;28;19912;-76
2021/11/27 02:51:41;;;;;;;;;;;;;;;;;;5053376;28;19913;-76
2021/11/27 02:54:07;;;;;;;;;;;;;;;;;;5053277;28;19920;-76
2021/11/27 02:56:32;;;;;;;;;;;;;;;;;;5052203;28;19922;-77
2021/11/27 02:59:07;;;;;;;;;;;;;;;;;;5051017;28;19936;-76
2021/11/27 03:01:32;;;;;;;;;;;;;;;;;;5052171;28;19998;-76
2021/11/27 03:03:57;;;;;;;;;;;;;;;;;;5052235;28;19917;-76
2021/11/27 03:06:23;;;;;;;;;;;;;;;;;;5035352;28;19917;-76
2021/11/27 03:08:48;;;;;;;;;;;;;;;;;;5051112;28;20420;-76
2021/11/27 03:11:13;;;;;;;;;;;;;;;;;;5052031;28;19913;-76
2021/11/27 03:13:40;;;;;;;;;;;;;;;;;;5051705;28;19962;-76
2021/11/27 03:16:07;;;;;;;;;;;;;;;;;;5051926;28;19947;-76
2021/11/27 03:18:32;;;;;;;;;;;;;;;;;;5051769;28;20041;-76
2021/11/27 03:20:58;;;;;;;;;;;;;;;;;;5052119;28;19913;-76
2021/11/27 03:23:24;;;;;;;;;;;;;;;;;;5053107;28;19913;-76
2021/11/27 03:25:50;;;;;;;;;;;;;;;;;;5051771;28;20023;-76
2021/11/27 03:28:15;;;;;;;;;;;;;;;;;;5053145;28;20344;-76
2021/11/27 03:30:41;;;;;;;;;;;;;;;;;;5051821;28;19912;-76
2021/11/27 03:33:09;;;;;;;;;;;;;;;;;;5053536;28;19948;-75
2021/11/27 03:35:34;;;;;;;;;;;;;;;;;;5055834;28;19952;-76
2021/11/27 03:38:02;;;;;;;;;;;;;;;;;;5055561;28;19958;-76
2021/11/27 03:40:30;;;;;;;;;;;;;;;;;;5055915;28;21304;-76
2021/11/27 03:42:58;;;;;;;;;;;;;;;;;;5054949;28;19919;-76
2021/11/27 03:45:24;;;;;;;;;;;;;;;;;;5056248;28;19920;-76
2021/11/27 03:47:58;;;;;;;;;;;;;;;;;;5055196;28;19920;-76
2021/11/27 03:50:27;;;;;;;;;;;;;;;;;;5055077;28;19912;-76
2021/11/27 03:52:52;;;;;;;;;;;;;;;;;;5038695;28;20095;-76
2021/11/27 03:55:18;;;;;;;;;;;;;;;;;;5038475;28;19920;-75
2021/11/27 03:57:43;;;;;;;;;;;;;;;;;;5054760;28;19912;-76
2021/11/27 04:00:09;;;;;;;;;;;;;;;;;;5054828;28;19913;-75
2021/11/27 04:02:40;;;;;;;;;;;;;;;;;;5056570;28;19917;-76
2021/11/27 04:05:06;;;;;;;;;;;;;;;;;;5054235;28;19912;-76
2021/11/27 04:07:31;;;;;;;;;;;;;;;;;;5055035;28;19919;-76
2021/11/27 04:09:57;;;;;;;;;;;;;;;;;;5054725;28;20527;-77
2021/11/27 04:12:23;;;;;;;;;;;;;;;;;;5054963;28;19962;-77
2021/11/27 04:14:49;;;;;;;;;;;;;;;;;;5055675;28;19913;-77
2021/11/27 04:17:14;;;;;;;;;;;;;;;;;;5056087;28;19912;-76
2021/11/27 04:19:42;;;;;;;;;;;;;;;;;;5054655;28;19938;-76
2021/11/27 04:22:08;;;;;;;;;;;;;;;;;;5054758;28;19912;-76
2021/11/27 04:24:36;;;;;;;;;;;;;;;;;;5054388;28;19920;-76
2021/11/27 04:27:01;;;;;;;;;;;;;;;;;;5054375;28;19966;-76
2021/11/27 04:29:27;;;;;;;;;;;;;;;;;;5054441;28;19959;-76
2021/11/27 04:31:52;;;;;;;;;;;;;;;;;;5054447;28;19959;-76
2021/11/27 04:34:19;;;;;;;;;;;;;;;;;;5054252;28;19913;-76
2021/11/27 04:36:44;;;;;;;;;;;;;;;;;;5054420;28;19913;-76
2021/11/27 04:39:13;;;;;;;;;;;;;;;;;;5054244;28;19916;-76
2021/11/27 04:41:38;;;;;;;;;;;;;;;;;;5054298;28;19919;-76
2021/11/27 04:44:04;;;;;;;;;;;;;;;;;;5054223;28;19913;-76
2021/11/27 04:46:29;;;;;;;;;;;;;;;;;;5053929;28;19917;-76
2021/11/27 04:48:57;;;;;;;;;;;;;;;;;;5053471;28;20292;-76
2021/11/27 04:51:23;;;;;;;;;;;;;;;;;;5037730;28;20374;-76
2021/11/27 04:53:49;;;;;;;;;;;;;;;;;;5053995;28;19963;-76
2021/11/27 04:56:14;;;;;;;;;;;;;;;;;;5054275;28;20446;-76
2021/11/27 04:58:40;;;;;;;;;;;;;;;;;;5053138;28;19917;-76
2021/11/27 05:01:08;;;;;;;;;;;;;;;;;;5053968;28;19912;-76
2021/11/27 05:03:41;;;;;;;;;;;;;;;;;;5053390;28;19958;-76
2021/11/27 05:06:07;;;;;;;;;;;;;;;;;;5053773;28;19916;-76
2021/11/27 05:08:32;;;;;;;;;;;;;;;;;;5054757;28;19920;-76
2021/11/27 05:10:58;;;;;;;;;;;;;;;;;;5053725;28;20004;-76
2021/11/27 05:13:24;;;;;;;;;;;;;;;;;;5053713;28;19919;-76
2021/11/27 05:15:50;;;;;;;;;;;;;;;;;;5037069;28;19916;-76
2021/11/27 05:18:17;;;;;;;;;;;;;;;;;;5053715;28;19962;-76
2021/11/27 05:20:58;;;;;;;;;;;;;;;;;;5054860;28;19917;-76
2021/11/27 05:23:23;;;;;;;;;;;;;;;;;;5053277;28;20371;-76
2021/11/27 05:25:49;;;;;;;;;;;;;;;;;;5053270;28;19963;-76
2021/11/27 05:28:33;;;;;;;;;;;;;;;;;;5054528;28;19970;-76
2021/11/27 05:31:16;;;;;;;;;;;;;;;;;;5053186;28;19916;-76
2021/11/27 05:36:15;;;;;;;;;;;;;;;;;;5053089;28;19943;-76
2021/11/27 05:38:40;;;;;;;;;;;;;;;;;;5052973;28;20298;-76
2021/11/27 05:41:09;;;;;;;;;;;;;;;;;;5052326;28;19912;-76
2021/11/27 05:43:34;;;;;;;;;;;;;;;;;;5053209;28;19916;-76
2021/11/27 05:46:00;;;;;;;;;;;;;;;;;;5052743;28;20309;-76
2021/11/27 05:48:29;;;;;;;;;;;;;;;;;;5036828;28;20396;-76
2021/11/27 05:51:13;;;;;;;;;;;;;;;;;;5053003;28;19924;-76
2021/11/27 05:53:39;;;;;;;;;;;;;;;;;;5053955;28;19912;-76
2021/11/27 05:56:04;;;;;;;;;;;;;;;;;;5053018;28;19995;-76
2021/11/27 05:58:30;;;;;;;;;;;;;;;;;;5053990;28;20297;-76
2021/11/27 06:00:55;;;;;;;;;;;;;;;;;;5053965;28;19916;-76
2021/11/27 06:03:21;;;;;;;;;;;;;;;;;;5054122;28;19920;-76
2021/11/27 06:05:46;;;;;;;;;;;;;;;;;;5051754;28;19920;-76
2021/11/27 06:08:11;;;;;;;;;;;;;;;;;;5053827;28;19919;-76
2021/11/27 06:10:37;;;;;;;;;;;;;;;;;;5053386;28;19927;-76
2021/11/27 06:13:02;;;;;;;;;;;;;;;;;;5053676;28;19912;-76
2021/11/27 06:15:27;;;;;;;;;;;;;;;;;;5035609;28;20354;-76
2021/11/27 06:17:56;;;;;;;;;;;;;;;;;;5053690;28;20010;-76
2021/11/27 06:20:21;;;;;;;;;;;;;;;;;;5053818;28;20418;-76
2021/11/27 06:22:47;;;;;;;;;;;;;;;;;;5052894;28;20006;-75
2021/11/27 06:25:13;;;;;;;;;;;;;;;;;;5053574;28;20005;-76
2021/11/27 06:27:38;;;;;;;;;;;;;;;;;;5053710;28;19912;-75
2021/11/27 06:30:05;;;;;;;;;;;;;;;;;;5052783;28;19996;-75
2021/11/27 06:32:30;;;;;;;;;;;;;;;;;;5053352;28;19994;-74
2021/11/27 06:34:57;;;;;;;;;;;;;;;;;;5053493;28;19939;-76
2021/11/27 06:37:23;;;;;;;;;;;;;;;;;;5053690;28;19963;-77
2021/11/27 06:39:49;;;;;;;;;;;;;;;;;;5052788;28;20327;-78
2021/11/27 06:42:15;;;;;;;;;;;;;;;;;;5053852;28;19935;-76
2021/11/27 06:44:51;;;;;;;;;;;;;;;;;;5051843;28;20274;-77
2021/11/27 06:47:19;;;;;;;;;;;;;;;;;;5052180;28;19917;-76
2021/11/27 06:49:45;;;;;;;;;;;;;;;;;;5053595;28;19956;-76
2021/11/27 06:52:12;;;;;;;;;;;;;;;;;;5053638;28;20047;-77
2021/11/27 06:54:38;;;;;;;;;;;;;;;;;;5053383;28;19975;-76
2021/11/27 06:57:03;;;;;;;;;;;;;;;;;;5053672;28;19917;-75
2021/11/27 06:59:29;;;;;;;;;;;;;;;;;;5053638;28;19916;-76
2021/11/27 07:02:26;;;;;;;;;;;;;;;;;;5052409;28;19920;-76
2021/11/27 07:05:10;;;;;;;;;;;;;;;;;;5052800;28;20388;-76
2021/11/27 07:07:44;;;;;;;;;;;;;;;;;;5053118;28;19913;-75
2021/11/27 07:10:25;;;;;;;;;;;;;;;;;;5057486;28;19936;-77
2021/11/27 07:12:59;;;;;;;;;;;;;;;;;;5055872;28;19912;-75
2021/11/27 07:15:26;;;;;;;;;;;;;;;;;;5055553;28;19995;-76
2021/11/27 07:17:51;;;;;;;;;;;;;;;;;;5056870;28;19990;-75
2021/11/27 07:20:16;;;;;;;;;;;;;;;;;;5056824;28;19924;-76
2021/11/27 07:22:42;;;;;;;;;;;;;;;;;;5056577;28;20140;-75
2021/11/27 07:25:08;;;;;;;;;;;;;;;;;;5055761;28;19919;-77
2021/11/27 07:27:52;;;;;;;;;;;;;;;;;;5060939;28;19920;-76
2021/11/27 07:30:17;;;;;;;;;;;;;;;;;;5057837;28;19912;-76
2021/11/27 07:32:46;;;;;;;;;;;;;;;;;;5055132;28;20370;-77
2021/11/27 07:35:11;;;;;;;;;;;;;;;;;;5056706;28;19913;-76
2021/11/27 07:37:37;;;;;;;;;;;;;;;;;;5056625;28;20413;-76
2021/11/27 07:40:02;;;;;;;;;;;;;;;;;;5055414;28;20275;-76
2021/11/27 07:42:28;;;;;;;;;;;;;;;;;;5056622;28;20366;-76
2021/11/27 07:45:20;;;;;;;;;;;;;;;;;;5056204;28;19955;-76
2021/11/27 07:48:08;;;;;;;;;;;;;;;;;;5056574;28;19991;-75
2021/11/27 07:50:52;;;;;;;;;;;;;;;;;;5056766;28;19921;-76
2021/11/27 07:53:21;;;;;;;;;;;;;;;;;;5055056;28;19920;-75
2021/11/27 07:55:46;;;;;;;;;;;;;;;;;;5054361;28;19912;-73
2021/11/27 07:58:12;;;;;;;;;;;;;;;;;;5056448;28;19947;-75
2021/11/27 08:00:37;;;;;;;;;;;;;;;;;;5056352;28;19923;-76
2021/11/27 08:03:02;;;;;;;;;;;;;;;;;;5056248;28;19916;-75
2021/11/27 08:05:28;;;;;;;;;;;;;;;;;;5054842;28;19916;-72
2021/11/27 08:07:53;;;;;;;;;;;;;;;;;;5056110;28;20258;-73
2021/11/27 08:10:18;;;;;;;;;;;;;;;;;;5055204;28;20399;-72
2021/11/27 08:12:44;;;;;;;;;;;;;;;;;;5056228;28;20323;-73
2021/11/27 08:15:09;;;;;;;;;;;;;;;;;;5055972;28;19912;-73
2021/11/27 08:17:35;;;;;;;;;;;;;;;;;;5055603;28;20258;-73
2021/11/27 08:20:01;;;;;;;;;;;;;;;;;;5055458;28;20004;-74
2021/11/27 08:22:27;;;;;;;;;;;;;;;;;;5054542;28;19963;-74
2021/11/27 08:24:52;;;;;;;;;;;;;;;;;;5055699;28;19920;-74
2021/11/27 08:27:17;;;;;;;;;;;;;;;;;;5055650;28;19916;-72
2021/11/27 08:29:43;;;;;;;;;;;;;;;;;;5055666;28;20011;-72
2021/11/27 08:32:10;;;;;;;;;;;;;;;;;;5055984;28;19987;-74
2021/11/27 08:34:35;;;;;;;;;;;;;;;;;;5055723;28;19920;-75
2021/11/27 08:37:00;;;;;;;;;;;;;;;;;;5055558;28;19912;-76
2021/11/27 08:39:26;;;;;;;;;;;;;;;;;;5055700;28;19946;-76
2021/11/27 08:41:51;;;;;;;;;;;;;;;;;;5055678;28;19912;-77
2021/11/27 08:44:16;;;;;;;;;;;;;;;;;;5055493;28;19909;-74
2021/11/27 08:46:42;;;;;;;;;;;;;;;;;;5055251;28;20285;-73
2021/11/27 08:49:07;;;;;;;;;;;;;;;;;;5054648;28;20050;-73
2021/11/27 08:51:37;;;;;;;;;;;;;;;;;;5054020;28;19916;-74
2021/11/27 08:54:02;;;;;;;;;;;;;;;;;;5055154;28;19994;-73
2021/11/27 08:56:27;;;;;;;;;;;;;;;;;;5055215;28;19916;-74
2021/11/27 08:58:53;;;;;;;;;;;;;;;;;;5054276;28;19967;-74
2021/11/27 09:01:18;;;;;;;;;;;;;;;;;;5053808;28;19913;-74
2021/11/27 09:03:44;;;;;;;;;;;;;;;;;;5055237;28;19913;-74
2021/11/27 09:06:09;;;;;;;;;;;;;;;;;;5054698;28;20011;-74
2021/11/27 09:08:36;;;;;;;;;;;;;;;;;;5054258;28;19948;-74
2021/11/27 09:11:01;;;;;;;;;;;;;;;;;;5054843;28;19912;-74
2021/11/27 09:13:27;;;;;;;;;;;;;;;;;;5054957;28;19919;-76
2021/11/27 09:15:52;;;;;;;;;;;;;;;;;;5054908;28;19913;-76
2021/11/27 09:18:18;;;;;;;;;;;;;;;;;;5055036;28;20293;-76
2021/11/27 09:20:43;;;;;;;;;;;;;;;;;;5054442;28;19916;-77
2021/11/27 09:23:08;;;;;;;;;;;;;;;;;;5053454;28;20401;-76
2021/11/27 09:25:34;;;;;;;;;;;;;;;;;;5054280;28;19931;-77
2021/11/27 09:27:59;;;;;;;;;;;;;;;;;;5053495;28;19913;-75
2021/11/27 09:30:26;;;;;;;;;;;;;;;;;;5054505;28;19912;-75
2021/11/27 09:32:51;;;;;;;;;;;;;;;;;;5054398;28;19927;-76
2021/11/27 09:35:18;;;;;;;;;;;;;;;;;;5054505;28;20359;-76
2021/11/27 09:37:44;;;;;;;;;;;;;;;;;;5053199;28;19952;-77
2021/11/27 09:40:10;;;;;;;;;;;;;;;;;;5054434;28;20396;-74
2021/11/27 09:42:37;;;;;;;;;;;;;;;;;;5054001;28;19919;-73
2021/11/27 09:45:03;;;;;;;;;;;;;;;;;;5054037;28;19924;-77
2021/11/27 09:47:29;;;;;;;;;;;;;;;;;;5054387;28;19916;-76
2021/11/27 09:49:56;;;;;;;;;;;;;;;;;;5053380;28;20308;-74
2021/11/27 09:52:21;;;;;;;;;;;;;;;;;;5054388;28;19917;-74
2021/11/27 09:54:48;;;;;;;;;;;;;;;;;;5053943;28;19999;-75
2021/11/27 09:57:13;;;;;;;;;;;;;;;;;;5054337;28;19959;-79
2021/11/27 09:59:39;;;;;;;;;;;;;;;;;;5054623;28;20065;-77
2021/11/27 10:02:09;;;;;;;;;;;;;;;;;;5054351;28;19916;-77
2021/11/27 10:04:37;;;;;;;;;;;;;;;;;;5053705;28;19912;-75
2021/11/27 10:07:02;;;;;;;;;;;;;;;;;;5053041;28;19924;-75
2021/11/27 10:09:29;;;;;;;;;;;;;;;;;;5053979;28;19916;-75
2021/11/27 10:11:54;;;;;;;;;;;;;;;;;;5036088;28;19958;-76
2021/11/27 10:14:20;;;;;;;;;;;;;;;;;;5053712;28;20003;-75
2021/11/27 10:16:58;;;;;;;;;;;;;;;;;;5052010;28;19919;-76
2021/11/27 10:19:43;;;;;;;;;;;;;;;;;;5053521;28;19955;-76
2021/11/27 10:22:13;;;;;;;;;;;;;;;;;;5053368;28;20050;-75
2021/11/27 10:24:39;;;;;;;;;;;;;;;;;;5053021;28;19955;-76
2021/11/27 10:27:15;;;;;;;;;;;;;;;;;;5053662;28;19956;-76
2021/11/27 10:29:40;;;;;;;;;;;;;;;;;;5053745;28;19943;-75
2021/11/27 10:32:10;;;;;;;;;;;;;;;;;;5053664;28;20294;-76
2021/11/27 10:34:36;;;;;;;;;;;;;;;;;;5052714;28;19913;-76
2021/11/27 10:37:02;;;;;;;;;;;;;;;;;;5052173;28;19913;-76
2021/11/27 10:39:27;;;;;;;;;;;;;;;;;;5053625;28;19928;-77
2021/11/27 10:42:03;;;;;;;;;;;;;;;;;;5053625;28;19917;-76
2021/11/27 10:44:29;;;;;;;;;;;;;;;;;;5057622;28;19927;-76
2021/11/27 10:47:16;;;;;;;;;;;;;;;;;;5057478;28;20271;-76
2021/11/27 10:49:42;;;;;;;;;;;;;;;;;;5057351;28;19958;-76
2021/11/27 10:52:15;;;;;;;;;;;;;;;;;;5056577;28;19920;-77
2021/11/27 10:54:41;;;;;;;;;;;;;;;;;;5057553;28;19916;-77
2021/11/27 10:57:07;;;;;;;;;;;;;;;;;;5056189;28;19908;-76
2021/11/27 10:59:38;;;;;;;;;;;;;;;;;;5057224;28;20050;-77
2021/11/27 11:02:05;;;;;;;;;;;;;;;;;;5057660;28;19917;-76
2021/11/27 11:04:31;;;;;;;;;;;;;;;;;;5056353;28;20420;-76
2021/11/27 11:07:16;;;;;;;;;;;;;;;;;;5057112;28;19928;-76
2021/11/27 11:10:00;;;;;;;;;;;;;;;;;;5056455;28;20373;-76
2021/11/27 11:12:41;;;;;;;;;;;;;;;;;;5057189;28;19935;-77
2021/11/27 11:15:07;;;;;;;;;;;;;;;;;;5057205;28;19975;-77
2021/11/27 11:17:32;;;;;;;;;;;;;;;;;;5057239;28;20325;-75
2021/11/27 11:20:10;;;;;;;;;;;;;;;;;;5057150;28;19912;-77
2021/11/27 11:22:35;;;;;;;;;;;;;;;;;;5057162;28;20390;-77
2021/11/27 11:25:06;;;;;;;;;;;;;;;;;;5057456;28;19912;-76
2021/11/27 11:27:32;;;;;;;;;;;;;;;;;;5056932;28;19971;-76
2021/11/27 11:30:01;;;;;;;;;;;;;;;;;;5056570;28;20008;-77
2021/11/27 11:32:27;;;;;;;;;;;;;;;;;;5055666;28;20325;-76
2021/11/27 11:34:53;;;;;;;;;;;;;;;;;;5056526;28;20035;-76
2021/11/27 11:37:18;;;;;;;;;;;;;;;;;;5056635;28;19920;-77
2021/11/27 11:39:45;;;;;;;;;;;;;;;;;;5055834;28;19912;-76
2021/11/27 11:42:10;;;;;;;;;;;;;;;;;;5056763;28;20025;-76
2021/11/27 11:44:36;;;;;;;;;;;;;;;;;;5056345;28;20370;-76
2021/11/27 11:47:02;;;;;;;;;;;;;;;;;;5056378;28;19974;-76
2021/11/27 11:49:28;;;;;;;;;;;;;;;;;;5056136;28;19912;-76
2021/11/27 11:52:02;;;;;;;;;;;;;;;;;;5055142;28;19923;-76
2021/11/27 11:54:31;;;;;;;;;;;;;;;;;;5054460;28;19927;-74
2021/11/27 11:57:08;;;;;;;;;;;;;;;;;;5056251;28;20390;-73
2021/11/27 11:59:37;;;;;;;;;;;;;;;;;;5056298;28;19924;-74
2021/11/27 12:02:14;;;;;;;;;;;;;;;;;;5056180;28;19909;-74
2021/11/27 12:04:58;;;;;;;;;;;;;;;;;;5056072;28;19919;-74
2021/11/27 12:07:50;;;;;;;;;;;;;;;;;;5056216;28;20019;-74
2021/11/27 12:10:26;;;;;;;;;;;;;;;;;;5054113;28;19913;-74
2021/11/27 12:13:09;;;;;;;;;;;;;;;;;;5055660;28;19957;-74
2021/11/27 12:15:39;;;;;;;;;;;;;;;;;;5056025;28;19913;-74
2021/11/27 12:18:06;;;;;;;;;;;;;;;;;;5055819;28;19935;-74
2021/11/27 12:20:41;;;;;;;;;;;;;;;;;;5054829;28;20366;-74
2021/11/27 12:23:25;;;;;;;;;;;;;;;;;;5055718;28;19952;-74
2021/11/27 12:26:06;;;;;;;;;;;;;;;;;;5055670;28;19917;-74
2021/11/27 12:28:36;;;;;;;;;;;;;;;;;;5055697;28;20243;-74
2021/11/27 12:31:05;;;;;;;;;;;;;;;;;;5055668;28;20282;-74
2021/11/27 12:33:40;;;;;;;;;;;;;;;;;;5055574;28;19912;-74
2021/11/27 12:36:06;;;;;;;;;;;;;;;;;;5055553;28;19912;-73
2021/11/27 12:38:32;;;;;;;;;;;;;;;;;;5055639;28;20305;-74
2021/11/27 12:41:00;;;;;;;;;;;;;;;;;;5055484;28;19944;-73
2021/11/27 12:43:26;;;;;;;;;;;;;;;;;;5054545;28;19999;-73
2021/11/27 12:45:53;;;;;;;;;;;;;;;;;;5055173;28;20003;-73
2021/11/27 12:48:34;;;;;;;;;;;;;;;;;;5055348;28;19959;-73
2021/11/27 12:51:18;;;;;;;;;;;;;;;;;;5055434;28;19913;-73
2021/11/27 12:53:58;;;;;;;;;;;;;;;;;;5055520;28;19917;-74
2021/11/27 12:56:25;;;;;;;;;;;;;;;;;;5055360;28;19920;-74
2021/11/27 12:58:50;;;;;;;;;;;;;;;;;;5055066;28;19913;-73
2021/11/27 13:01:25;;;;;;;;;;;;;;;;;;5054012;28;20434;-73
2021/11/27 13:03:51;;;;;;;;;;;;;;;;;;5055171;28;19916;-74
2021/11/27 13:06:16;;;;;;;;;;;;;;;;;;5053960;28;19926;-73
2021/11/27 13:08:42;;;;;;;;;;;;;;;;;;5053773;28;19913;-73
2021/11/27 13:11:08;;;;;;;;;;;;;;;;;;5055119;28;19912;-73
2021/11/27 13:13:41;;;;;;;;;;;;;;;;;;5054774;28;20438;-73
2021/11/27 13:16:08;;;;;;;;;;;;;;;;;;5054892;28;20351;-73
2021/11/27 13:18:34;;;;;;;;;;;;;;;;;;5054653;28;19916;-74
2021/11/27 13:21:01;;;;;;;;;;;;;;;;;;5054814;28;19912;-73
2021/11/27 13:23:29;;;;;;;;;;;;;;;;;;5054867;28;19919;-73
2021/11/27 13:25:55;;;;;;;;;;;;;;;;;;5054263;28;19921;-72
2021/11/27 13:28:20;;;;;;;;;;;;;;;;;;5054684;28;20377;-74
2021/11/27 13:30:45;;;;;;;;;;;;;;;;;;5054675;28;19913;-74
2021/11/27 13:33:11;;;;;;;;;;;;;;;;;;5054631;28;19920;-74
2021/11/27 13:35:37;;;;;;;;;;;;;;;;;;5054543;28;20349;-73
2021/11/27 13:38:03;;;;;;;;;;;;;;;;;;5045050;28;19912;-73
2021/11/27 13:40:30;;;;;;;;;;;;;;;;;;5041919;28;19920;-73
2021/11/27 13:43:08;;;;;;;;;;;;;;;;;;5043799;28;19912;-74
2021/11/27 13:45:33;;;;;;;;;;;;;;;;;;5043615;28;20465;-74
2021/11/27 13:48:04;;;;;;;;;;;;;;;;;;5044767;28;20003;-74
2021/11/27 13:50:30;;;;;;;;;;;;;;;;;;5044089;28;19935;-73
2021/11/27 13:52:56;;;;;;;;;;;;;;;;;;5044041;28;19913;-74
2021/11/27 13:55:24;;;;;;;;;;;;;;;;;;5042378;28;19927;-73
2021/11/27 13:57:51;;;;;;;;;;;;;;;;;;5044026;28;19966;-74
2021/11/27 14:00:27;;;;;;;;;;;;;;;;;;5025899;28;20004;-74
2021/11/27 14:03:10;;;;;;;;;;;;;;;;;;5043350;28;19913;-74
2021/11/27 14:05:39;;;;;;;;;;;;;;;;;;5042949;28;19924;-74
2021/11/27 14:08:09;;;;;;;;;;;;;;;;;;5044297;28;19913;-75
2021/11/27 14:10:34;;;;;;;;;;;;;;;;;;5043836;28;19913;-76
2021/11/27 14:13:01;;;;;;;;;;;;;;;;;;5042735;28;19967;-76
2021/11/27 14:15:27;;;;;;;;;;;;;;;;;;5044609;28;19916;-75
2021/11/27 14:18:04;;;;;;;;;;;;;;;;;;5042817;28;19999;-75
2021/11/27 14:20:35;;;;;;;;;;;;;;;;;;5042558;28;20283;-76
2021/11/27 14:23:01;;;;;;;;;;;;;;;;;;5041771;28;19944;-76
2021/11/27 14:25:27;;;;;;;;;;;;;;;;;;5044615;28;19952;-76
2021/11/27 14:27:55;;;;;;;;;;;;;;;;;;5043318;28;19920;-76
2021/11/27 14:30:21;;;;;;;;;;;;;;;;;;5043986;28;20012;-76
2021/11/27 14:32:47;;;;;;;;;;;;;;;;;;5041013;28;19913;-76
2021/11/27 14:35:31;;;;;;;;;;;;;;;;;;5043183;28;19919;-76
2021/11/27 14:37:57;;;;;;;;;;;;;;;;;;5043564;28;20299;-76
2021/11/27 14:40:23;;;;;;;;;;;;;;;;;;5040895;28;19927;-76
2021/11/27 14:42:48;;;;;;;;;;;;;;;;;;5041195;28;19913;-76
2021/11/27 14:45:14;;;;;;;;;;;;;;;;;;5032111;28;20314;-76
2021/11/27 14:47:43;;;;;;;;;;;;;;;;;;5033681;28;19917;-76
2021/11/27 14:50:13;;;;;;;;;;;;;;;;;;5033494;28;20016;-76
2021/11/27 14:52:40;;;;;;;;;;;;;;;;;;5033571;28;19913;-76
2021/11/27 14:55:06;;;;;;;;;;;;;;;;;;5033473;28;20390;-76
2021/11/27 14:57:33;;;;;;;;;;;;;;;;;;5033785;28;19959;-76
2021/11/27 15:00:14;;;;;;;;;;;;;;;;;;5033703;28;19913;-76
2021/11/27 15:02:40;;;;;;;;;;;;;;;;;;5015887;28;19948;-76
2021/11/27 15:05:07;;;;;;;;;;;;;;;;;;5050573;28;20349;-76
2021/11/27 15:07:33;;;;;;;;;;;;;;;;;;5052715;28;19919;-76
2021/11/27 15:10:02;;;;;;;;;;;;;;;;;;5053235;28;20308;-76
2021/11/27 15:12:28;;;;;;;;;;;;;;;;;;5052435;28;19924;-76
2021/11/27 15:14:54;;;;;;;;;;;;;;;;;;5053309;28;20333;-77
2021/11/27 15:17:20;;;;;;;;;;;;;;;;;;5052929;28;19920;-76
2021/11/27 15:19:45;;;;;;;;;;;;;;;;;;5052066;28;20290;-76
2021/11/27 15:22:12;;;;;;;;;;;;;;;;;;5053251;28;19908;-76
2021/11/27 15:24:42;;;;;;;;;;;;;;;;;;5052986;28;19913;-75
2021/11/27 15:27:08;;;;;;;;;;;;;;;;;;5053446;28;19920;-77
2021/11/27 15:29:33;;;;;;;;;;;;;;;;;;5054666;28;20298;-77
2021/11/27 15:32:04;;;;;;;;;;;;;;;;;;5059786;28;19922;-78
2021/11/27 15:34:30;;;;;;;;;;;;;;;;;;5060615;28;20408;-78
2021/11/27 15:36:56;;;;;;;;;;;;;;;;;;5058397;28;19912;-79
2021/11/27 15:39:21;;;;;;;;;;;;;;;;;;5053624;28;19918;-76
2021/11/27 15:41:47;;;;;;;;;;;;;;;;;;5037461;28;19968;-78
2021/11/27 15:44:12;;;;;;;;;;;;;;;;;;5038267;28;20280;-78
2021/11/27 15:46:38;;;;;;;;;;;;;;;;;;5039858;28;19943;-77
2021/11/27 15:49:07;;;;;;;;;;;;;;;;;;5037847;28;19916;-76
2021/11/27 15:51:34;;;;;;;;;;;;;;;;;;5036552;28;19913;-76
2021/11/27 15:53:59;;;;;;;;;;;;;;;;;;5035370;28;19917;-76
2021/11/27 15:56:24;;;;;;;;;;;;;;;;;;5035966;28;19966;-76
2021/11/27 15:58:50;;;;;;;;;;;;;;;;;;5036150;28;19913;-76
2021/11/27 16:01:15;;;;;;;;;;;;;;;;;;5044296;28;19921;-76
2021/11/27 16:03:40;;;;;;;;;;;;;;;;;;5044493;28;19913;-76
2021/11/27 16:06:07;;;;;;;;;;;;;;;;;;5044298;28;19932;-76
2021/11/27 16:08:33;;;;;;;;;;;;;;;;;;5046938;28;19912;-78
2021/11/27 16:10:58;;;;;;;;;;;;;;;;;;5044332;28;19920;-76
2021/11/27 16:13:24;;;;;;;;;;;;;;;;;;5045774;28;19939;-76
2021/11/27 16:15:49;;;;;;;;;;;;;;;;;;5046849;28;19913;-76
2021/11/27 16:18:16;;;;;;;;;;;;;;;;;;5043655;28;19920;-77
2021/11/27 16:20:42;;;;;;;;;;;;;;;;;;5044363;28;20405;-77
2021/11/27 16:23:07;;;;;;;;;;;;;;;;;;5046832;28;19920;-76
2021/11/27 16:25:33;;;;;;;;;;;;;;;;;;5044524;28;19917;-76
2021/11/27 16:27:58;;;;;;;;;;;;;;;;;;5046737;28;19913;-76
2021/11/27 16:30:23;;;;;;;;;;;;;;;;;;5045263;28;19920;-76
2021/11/27 16:32:49;;;;;;;;;;;;;;;;;;5046343;28;19999;-76
2021/11/27 16:35:14;;;;;;;;;;;;;;;;;;5044857;28;19913;-79
2021/11/27 16:37:39;;;;;;;;;;;;;;;;;;5044649;28;19913;-76
2021/11/27 16:40:05;;;;;;;;;;;;;;;;;;5044873;28;19916;-77
2021/11/27 16:42:32;;;;;;;;;;;;;;;;;;5043445;28;19921;-77
2021/11/27 16:44:57;;;;;;;;;;;;;;;;;;5044280;28;19913;-77
2021/11/27 16:47:23;;;;;;;;;;;;;;;;;;5046425;28;20417;-77
2021/11/27 16:49:48;;;;;;;;;;;;;;;;;;5044847;28;19919;-77
2021/11/27 16:52:13;;;;;;;;;;;;;;;;;;5043869;28;19917;-78